Adjud, Romania

7:16 AM EEST on October 25, 2014 (GMT +0300)
Bacau | Change Station
CLOSE
Current Station
Airport
Location: Bacau,
Elevation: 607 ft
Nearby Weather Stations

Elev 607 ft 46.52 °N, 26.91 °E | Updated 16 minutes ago

Mostly Cloudy
Mostly Cloudy
32 °F
Feels Like 23 °F
N
12
Wind Variable Wind from North

Today
High -- | Low -- °F
--% Chance of Precip.
Yesterday
High -- | Low -- °F
Precip. -- in
7:41 AM 6:08 PM
New Moon, 2% visible
Pressure 30.39 in
Visibility 6.2 miles
Clouds Scattered Clouds 700 ft
Mostly Cloudy 1100 ft
Mostly Cloudy 1900 ft
Windchill 23 °F
Dew Point 32 °F
Humidity 100%
Rainfall 0.00 in
Snow Depth Not available.
UV 0 out of 12
Pollen Not available.
Air Quality Not available.
Flu Activity Not available.
METAR LRBC 250400Z 35010KT 9999 SCT007 BKN011 BKN019 00/M00 Q1029

More Conditions Fewer Conditions

Pressure 30.39 in
Visibility 6.2 miles
Clouds Scattered Clouds 700 ft
Mostly Cloudy 1100 ft
Mostly Cloudy 1900 ft
Windchill 23 °F
Dew Point 32 °F
Humidity 100%
Rainfall 0.00 in
Snow Depth Not available.
UV 0 out of 12
Pollen Not available.
Air Quality Not available.
Flu Activity Not available.
METAR LRBC 250400Z 35010KT 9999 SCT007 BKN011 BKN019 00/M00 Q1029

More Conditions Fewer Conditions

10-Day Weather Forecast

Almanac

Astronomy

Oct. 25, 2014 Rise Set
Actual Time 7:41 AM EEST 6:08 PM EEST
Civil Twilight 7:10 AM EEST 6:39 PM EEST
Nautical Twilight 6:35 AM EEST 7:14 PM EEST
Astronomical Twilight 6:01 AM EEST 7:48 PM EEST
Moon 9:04 AM EEST 7:12 PM EEST
Length of Visible Light 11h 28m
Length of Day
10h 26m
Tomorrow will be 3m 1s shorter.
New Moon, 2% of the Moon is Illuminated
Today
New Moon
Oct 30
First Quarter
Nov 6
Full
Nov 14
Last Quarter
Nov 22
New

Yesterday's Extremes

Country Highs Country Lows

Community

WunderPhotos

Upload Photos

1,764,779 photos uploaded!

Nearby

Snow Depth

Not available.

Earthquake Activity

City Distance Mag. Time & Date
No recent earthquake activity has been reported nearby.
Minimum magnitude displayed is 2.5.

Coastal Water Temperatures

Place Temperature
No Stations Reporting

Nearby Weather Stations